createdAt,value
2023-02-22T00:04:50.663Z,16.05
2023-02-22T00:07:21.362Z,14.07
2023-02-22T00:09:49.480Z,12.50
2023-02-22T00:12:17.437Z,18.45
2023-02-22T00:14:45.290Z,23.15
2023-02-22T00:17:13.532Z,18.20
2023-02-22T00:19:41.356Z,12.63
2023-02-22T00:22:10.488Z,20.15
2023-02-22T00:24:38.336Z,19.23
2023-02-22T00:27:06.192Z,16.80
2023-02-22T00:29:34.599Z,20.60
2023-02-22T00:32:02.594Z,17.55
2023-02-22T00:34:30.477Z,19.45
2023-02-22T00:36:58.402Z,18.50
2023-02-22T00:39:27.704Z,18.02
2023-02-22T00:41:55.608Z,22.35
2023-02-22T00:44:24.136Z,20.23
2023-02-22T00:46:52.055Z,18.73
2023-02-22T00:49:20.191Z,15.82
2023-02-22T00:51:50.934Z,15.88
2023-02-22T00:54:20.054Z,19.60
2023-02-22T00:56:50.460Z,13.07
2023-02-22T00:59:18.413Z,17.20
2023-02-22T01:01:46.276Z,15.38
2023-02-22T01:04:14.124Z,15.88
2023-02-22T01:06:42.219Z,24.42
2023-02-22T01:09:10.211Z,16.60
2023-02-22T01:11:37.995Z,18.35
2023-02-22T01:14:11.617Z,15.38
2023-02-22T01:16:39.480Z,22.27
2023-02-22T01:19:07.447Z,19.95
2023-02-22T01:21:35.258Z,12.95
2023-02-22T01:24:03.144Z,17.92
2023-02-22T01:26:31.076Z,21.88
2023-02-22T01:28:59.128Z,17.15
2023-02-22T01:31:28.571Z,15.85
2023-02-22T01:33:56.510Z,16.17
2023-02-22T01:36:24.460Z,18.70
2023-02-22T01:38:52.419Z,21.92
2023-02-22T01:41:22.575Z,19.23
2023-02-22T01:43:50.506Z,18.75
2023-02-22T01:46:23.534Z,20.15
2023-02-22T01:48:57.359Z,17.60
2023-02-22T01:51:29.447Z,24.45
2023-02-22T01:54:01.289Z,17.50
2023-02-22T01:56:32.455Z,15.07
2023-02-22T01:59:03.371Z,20.30
2023-02-22T02:01:31.886Z,13.05
2023-02-22T02:04:05.044Z,13.10
2023-02-22T02:06:35.877Z,18.20
2023-02-22T02:09:11.096Z,19.50
2023-02-22T02:11:41.326Z,25.55
2023-02-22T02:14:11.386Z,18.08
2023-02-22T02:16:43.167Z,16.88
2023-02-22T02:19:20.213Z,21.33
2023-02-22T02:22:38.738Z,19.05
2023-02-22T02:25:30.836Z,19.38
2023-02-22T02:28:46.927Z,25.58
2023-02-22T02:31:44.331Z,13.38
2023-02-22T02:34:20.378Z,25.95
2023-02-22T02:36:58.616Z,15.93
2023-02-22T02:39:30.437Z,19.58
2023-02-22T02:42:01.701Z,16.40
2023-02-22T02:44:37.764Z,17.77
2023-02-22T02:47:08.251Z,20.15
2023-02-22T02:49:45.063Z,22.30
2023-02-22T02:52:14.436Z,18.35
2023-02-22T02:54:43.177Z,19.67
2023-02-22T02:57:11.183Z,15.43
2023-02-22T02:59:39.540Z,20.00
2023-02-22T03:02:25.751Z,14.20
2023-02-22T03:05:09.929Z,25.88
2023-02-22T03:07:50.712Z,23.58
2023-02-22T03:10:44.761Z,16.27
2023-02-22T03:13:20.235Z,24.20
2023-02-22T03:15:57.930Z,20.30
2023-02-22T03:18:30.246Z,15.68
2023-02-22T03:21:12.589Z,20.83
2023-02-22T03:23:46.444Z,21.02
2023-02-22T03:26:23.802Z,19.17
2023-02-22T03:28:56.853Z,19.35
2023-02-22T03:31:30.758Z,25.02
2023-02-22T03:34:03.392Z,27.38
2023-02-22T03:36:38.977Z,18.40
2023-02-22T03:39:10.202Z,16.25
2023-02-22T03:41:40.727Z,18.25
2023-02-22T03:44:12.783Z,17.88
2023-02-22T03:46:43.684Z,14.45
2023-02-22T03:49:15.726Z,20.98
2023-02-22T03:51:45.601Z,19.48
2023-02-22T03:54:16.362Z,19.40
2023-02-22T03:56:51.228Z,22.35
2023-02-22T03:59:27.415Z,19.10
2023-02-22T04:01:55.945Z,17.50
2023-02-22T04:04:24.853Z,21.35
2023-02-22T04:06:54.354Z,24.40
2023-02-22T04:09:22.815Z,17.63
2023-02-22T04:11:50.677Z,19.33
2023-02-22T04:14:18.532Z,21.83
2023-02-22T04:16:46.194Z,17.50
2023-02-22T04:19:13.993Z,17.88
2023-02-22T04:21:41.872Z,23.67
2023-02-22T04:24:17.919Z,20.20
2023-02-22T04:26:45.917Z,16.85
2023-02-22T04:29:13.745Z,14.13
2023-02-22T04:31:45.095Z,13.05
2023-02-22T04:34:13.250Z,14.68
2023-02-22T04:36:44.571Z,15.57
2023-02-22T04:39:12.994Z,19.63
2023-02-22T04:41:42.078Z,13.85
2023-02-22T04:44:09.788Z,12.63
2023-02-22T04:46:37.620Z,11.55
2023-02-22T04:49:05.545Z,15.65
2023-02-22T04:51:36.910Z,11.30
2023-02-22T04:54:09.612Z,10.13
2023-02-22T04:56:39.382Z,9.50
2023-02-22T04:59:08.565Z,13.02
2023-02-22T05:01:38.498Z,7.35
2023-02-22T05:04:07.698Z,11.98
2023-02-22T05:06:35.756Z,13.93
2023-02-22T05:09:03.857Z,14.25
2023-02-22T05:11:31.648Z,13.15
2023-02-22T05:13:59.600Z,16.00
2023-02-22T05:16:28.851Z,13.63
2023-02-22T05:18:56.679Z,17.60
2023-02-22T05:21:24.637Z,14.93
2023-02-22T05:23:52.378Z,15.40
2023-02-22T05:26:20.175Z,12.80
2023-02-22T05:28:47.910Z,15.63
2023-02-22T05:31:15.928Z,15.30
2023-02-22T05:33:45.219Z,13.77
2023-02-22T05:36:12.971Z,13.02
2023-02-22T05:38:43.423Z,11.13
2023-02-22T05:41:12.617Z,13.02
2023-02-22T05:43:41.627Z,14.15
2023-02-22T05:46:09.394Z,10.52
2023-02-22T05:48:37.234Z,14.45
2023-02-22T05:51:06.605Z,10.85
2023-02-22T05:53:34.508Z,14.27
2023-02-22T05:56:02.439Z,14.30
2023-02-22T05:58:30.159Z,17.55
2023-02-22T06:00:57.858Z,19.85
2023-02-22T06:03:25.661Z,10.95
2023-02-22T06:05:53.415Z,15.65
2023-02-22T06:08:22.445Z,9.05
2023-02-22T06:10:50.150Z,16.85
2023-02-22T06:13:17.901Z,12.93
2023-02-22T06:15:45.602Z,12.40
2023-02-22T06:18:13.388Z,15.38
2023-02-22T06:20:41.389Z,11.27
2023-02-22T06:23:09.209Z,14.10
2023-02-22T06:25:38.393Z,10.15
2023-02-22T06:28:06.138Z,15.20
2023-02-22T06:30:34.071Z,14.27
2023-02-22T06:33:01.842Z,15.02
2023-02-22T06:35:29.557Z,13.43
2023-02-22T06:37:57.289Z,12.20
2023-02-22T06:40:29.331Z,14.10
2023-02-22T06:42:59.873Z,12.02
2023-02-22T06:45:27.843Z,10.20
2023-02-22T06:47:55.689Z,10.20
2023-02-22T06:50:26.162Z,9.13
2023-02-22T06:52:53.923Z,15.30
2023-02-22T06:55:23.376Z,14.63
2023-02-22T06:57:52.175Z,10.13
2023-02-22T07:00:23.258Z,14.65
2023-02-22T07:02:51.045Z,10.02
2023-02-22T07:05:21.017Z,11.10
2023-02-22T07:07:50.141Z,12.52
2023-02-22T07:10:20.620Z,7.63
2023-02-22T07:12:48.876Z,11.07
2023-02-22T07:15:18.390Z,11.40
2023-02-22T07:17:47.449Z,10.93
2023-02-22T07:20:15.242Z,10.50
2023-02-22T07:22:43.075Z,9.70
2023-02-22T07:25:12.260Z,6.78
2023-02-22T07:27:41.458Z,9.77
2023-02-22T07:30:16.983Z,9.43
2023-02-22T07:32:44.933Z,9.82
2023-02-22T07:35:17.678Z,9.98
2023-02-22T07:37:45.439Z,9.50
2023-02-22T07:40:13.642Z,14.88
2023-02-22T07:42:55.220Z,9.75
2023-02-22T07:45:24.499Z,11.63
2023-02-22T07:47:52.890Z,9.27
2023-02-22T07:50:23.807Z,12.13
2023-02-22T07:52:54.558Z,7.13
2023-02-22T07:55:24.616Z,9.13
2023-02-22T07:57:54.262Z,9.82
2023-02-22T08:00:24.887Z,8.38
2023-02-22T08:03:54.402Z,9.52
2023-02-22T08:06:25.802Z,8.35
2023-02-22T08:08:53.566Z,9.48
2023-02-22T08:11:21.265Z,6.90
2023-02-22T08:13:49.100Z,7.95
2023-02-22T08:16:16.893Z,4.00
2023-02-22T08:18:44.643Z,17.15
2023-02-22T08:21:12.441Z,7.95
2023-02-22T08:23:41.564Z,11.85
2023-02-22T08:26:15.514Z,9.02
2023-02-22T08:28:43.282Z,7.35
2023-02-22T08:31:11.005Z,6.65
2023-02-22T08:33:38.866Z,6.60
2023-02-22T08:36:07.334Z,9.80
2023-02-22T08:38:35.133Z,9.50
2023-02-22T08:41:04.443Z,8.05
2023-02-22T08:43:32.254Z,12.40
2023-02-22T08:46:00.840Z,8.93
2023-02-22T08:48:28.921Z,11.85
2023-02-22T08:50:56.695Z,9.00
2023-02-22T08:53:26.976Z,8.10
2023-02-22T08:55:54.789Z,11.68
2023-02-22T08:58:23.926Z,6.78
2023-02-22T09:00:52.145Z,9.82
2023-02-22T09:03:20.028Z,10.40
2023-02-22T09:05:48.108Z,7.75
2023-02-22T09:08:17.342Z,12.65
2023-02-22T09:10:45.825Z,9.10
2023-02-22T09:13:14.086Z,7.72
2023-02-22T09:15:43.651Z,11.05
2023-02-22T09:18:15.230Z,7.40
2023-02-22T09:20:43.218Z,10.05
2023-02-22T09:23:11.377Z,10.55
2023-02-22T09:25:40.746Z,10.45
2023-02-22T09:28:09.290Z,8.85
2023-02-22T09:30:37.780Z,9.38
2023-02-22T09:33:09.916Z,6.55
2023-02-22T09:35:42.152Z,6.90
2023-02-22T09:38:11.383Z,7.50
2023-02-22T09:40:45.098Z,9.45
2023-02-22T09:43:35.649Z,11.20
2023-02-22T09:46:19.262Z,22.45
2023-02-22T09:48:59.222Z,11.60
2023-02-22T09:51:30.701Z,18.90
2023-02-22T09:54:03.053Z,11.27
2023-02-22T09:56:33.858Z,10.75
2023-02-22T09:59:04.712Z,15.07
2023-02-22T10:01:36.502Z,11.68
2023-02-22T10:04:12.523Z,19.13
2023-02-22T10:06:45.457Z,11.48
2023-02-22T10:09:13.352Z,12.02
2023-02-22T10:11:53.410Z,11.52
2023-02-22T10:14:43.933Z,12.05
2023-02-22T10:17:20.370Z,10.80
2023-02-22T10:20:05.070Z,11.10
2023-02-22T10:22:43.801Z,7.90
2023-02-22T10:25:18.026Z,8.90
2023-02-22T10:27:52.589Z,6.55
2023-02-22T10:30:25.767Z,13.63
2023-02-22T10:32:59.458Z,8.10
2023-02-22T10:35:33.750Z,12.10
2023-02-22T10:38:13.486Z,8.82
2023-02-22T10:40:44.780Z,7.68
2023-02-22T10:43:12.649Z,10.43
2023-02-22T10:45:40.997Z,9.80
2023-02-22T10:48:11.919Z,12.07
2023-02-22T10:50:44.280Z,11.80
2023-02-22T10:53:12.397Z,12.30
2023-02-22T10:56:13.828Z,12.93
2023-02-22T10:58:49.978Z,12.02
2023-02-22T11:01:27.731Z,12.43
2023-02-22T11:04:01.021Z,8.95
2023-02-22T11:06:31.453Z,15.35
2023-02-22T11:09:10.300Z,10.77
2023-02-22T11:11:39.670Z,11.68
2023-02-22T11:14:10.644Z,8.68
2023-02-22T11:16:41.751Z,11.45
2023-02-22T11:19:23.215Z,12.45
2023-02-22T11:21:54.920Z,9.00
2023-02-22T11:24:30.420Z,9.38
2023-02-22T11:27:03.507Z,13.90
2023-02-22T11:29:34.178Z,9.43
2023-02-22T11:32:03.953Z,5.40
2023-02-22T11:34:36.433Z,7.88
2023-02-22T11:37:34.414Z,9.05
2023-02-22T11:40:12.997Z,6.72
2023-02-22T11:42:40.838Z,8.18
2023-02-22T11:45:17.216Z,12.02
2023-02-22T11:47:53.894Z,10.20
2023-02-22T11:50:28.972Z,7.15
2023-02-22T11:53:26.292Z,7.63
2023-02-22T11:56:11.538Z,19.58
2023-02-22T11:58:46.537Z,15.00
2023-02-22T12:01:23.049Z,11.65
2023-02-22T12:04:15.638Z,9.25
2023-02-22T12:06:52.233Z,9.05
2023-02-22T12:09:33.076Z,9.02
2023-02-22T12:12:13.685Z,6.60
2023-02-22T12:14:50.458Z,6.60
2023-02-22T12:17:29.181Z,7.20
2023-02-22T12:20:06.848Z,14.40
2023-02-22T12:22:40.293Z,6.75
2023-02-22T12:25:21.536Z,8.98
2023-02-22T12:27:54.103Z,11.77
2023-02-22T12:30:28.880Z,10.32
2023-02-22T12:33:00.376Z,12.00
2023-02-22T12:35:29.874Z,11.50
2023-02-22T12:38:05.468Z,4.50
2023-02-22T12:40:44.977Z,13.75
2023-02-22T12:43:20.626Z,10.70
2023-02-22T12:45:51.870Z,8.10
2023-02-22T12:48:32.110Z,7.70
2023-02-22T12:51:09.701Z,5.35
2023-02-22T12:53:42.163Z,12.40
2023-02-22T12:56:21.424Z,8.23
2023-02-22T12:58:55.232Z,7.20
2023-02-22T13:01:26.623Z,5.03
2023-02-22T13:03:55.738Z,7.55
2023-02-22T13:06:41.640Z,6.63
2023-02-22T13:09:34.197Z,8.00
2023-02-22T13:12:14.296Z,9.52
2023-02-22T13:14:55.518Z,3.28
2023-02-22T13:17:34.244Z,12.32
2023-02-22T13:20:09.178Z,5.30
2023-02-22T13:22:47.937Z,5.30
2023-02-22T13:25:22.023Z,7.55
2023-02-22T13:27:56.282Z,4.35
2023-02-22T13:30:33.265Z,4.57
2023-02-22T13:33:22.408Z,3.03
2023-02-22T13:36:13.458Z,8.00
2023-02-22T13:39:27.942Z,3.95
2023-02-22T13:42:36.796Z,5.55
2023-02-22T13:45:56.080Z,7.80
2023-02-22T13:48:53.863Z,3.85
2023-02-22T13:51:37.190Z,4.72
2023-02-22T13:54:10.000Z,4.18
2023-02-22T13:56:43.316Z,7.20
2023-02-22T13:59:25.007Z,5.72
2023-02-22T14:01:55.246Z,5.43
2023-02-22T14:04:45.237Z,8.55
2023-02-22T14:07:56.045Z,6.00
2023-02-22T14:10:38.870Z,3.45
2023-02-22T14:13:08.338Z,3.95
2023-02-22T14:15:36.636Z,4.07
2023-02-22T14:18:07.442Z,3.75
2023-02-22T14:20:36.801Z,3.22
2023-02-22T14:23:34.781Z,5.35
2023-02-22T14:26:13.275Z,4.30
2023-02-22T14:28:48.786Z,2.33
2023-02-22T14:31:34.507Z,4.38
2023-02-22T14:34:08.877Z,4.20
2023-02-22T14:36:44.066Z,2.33
2023-02-22T14:39:17.964Z,2.38
2023-02-22T14:41:53.776Z,1.90
2023-02-22T14:44:27.656Z,5.88
2023-02-22T14:47:02.268Z,6.28
2023-02-22T14:49:37.038Z,2.75
2023-02-22T14:52:16.086Z,1.08
2023-02-22T14:54:59.306Z,5.40
2023-02-22T14:57:32.995Z,4.15
2023-02-22T15:00:19.796Z,3.40
2023-02-22T15:02:49.277Z,1.92
2023-02-22T15:05:20.896Z,4.22
2023-02-22T15:07:54.298Z,3.97
2023-02-22T15:10:27.933Z,3.63
2023-02-22T15:13:08.975Z,3.63
2023-02-22T15:15:40.660Z,6.00
2023-02-22T15:18:18.808Z,2.17
2023-02-22T15:20:55.787Z,4.82
2023-02-22T15:23:26.017Z,5.13
2023-02-22T15:25:54.525Z,2.50
2023-02-22T15:28:24.202Z,3.15
2023-02-22T15:30:51.928Z,2.30
2023-02-22T15:33:24.195Z,1.50
2023-02-22T15:35:59.511Z,3.65
2023-02-22T15:38:30.890Z,2.03
2023-02-22T15:41:03.757Z,0.85
2023-02-22T15:43:32.599Z,6.55
2023-02-22T15:46:01.854Z,3.13
2023-02-22T15:48:31.602Z,2.28
2023-02-22T15:51:06.612Z,11.88
2023-02-22T15:53:41.176Z,7.60
2023-02-22T15:56:13.467Z,4.32
2023-02-22T15:58:42.390Z,2.90
2023-02-22T16:01:12.390Z,5.57
2023-02-22T16:03:44.997Z,3.92
2023-02-22T16:06:22.093Z,2.65
2023-02-22T16:08:55.353Z,4.18
2023-02-22T16:11:30.078Z,6.97
2023-02-22T16:14:01.666Z,1.83
2023-02-22T16:16:32.348Z,0.65
2023-02-22T16:19:32.860Z,3.08
2023-02-22T16:22:04.325Z,1.05
2023-02-22T16:24:34.211Z,8.45
2023-02-22T16:27:23.848Z,2.58
2023-02-22T16:30:23.353Z,4.28
2023-02-22T16:32:52.846Z,1.83
2023-02-22T16:35:20.745Z,4.43
2023-02-22T16:37:52.148Z,2.97
2023-02-22T16:40:24.540Z,1.92
2023-02-22T16:42:52.635Z,1.80
2023-02-22T16:45:21.964Z,2.88
2023-02-22T16:47:51.606Z,2.03
2023-02-22T16:50:19.578Z,3.45
2023-02-22T16:52:47.676Z,2.17
2023-02-22T16:55:18.794Z,4.70
2023-02-22T16:57:46.620Z,5.72
2023-02-22T17:00:17.356Z,4.90
2023-02-22T17:02:45.980Z,4.38
2023-02-22T17:05:16.667Z,5.78
2023-02-22T17:07:44.477Z,4.03
2023-02-22T17:10:17.892Z,5.88
2023-02-22T17:12:47.202Z,7.82
2023-02-22T17:15:22.917Z,7.28
2023-02-22T17:17:51.596Z,3.53
2023-02-22T17:20:29.923Z,11.15
2023-02-22T17:22:59.170Z,4.75
2023-02-22T17:25:31.748Z,3.88
2023-02-22T17:27:59.612Z,6.15
2023-02-22T17:30:28.115Z,7.13
2023-02-22T17:33:03.437Z,3.90
2023-02-22T17:35:35.079Z,5.80
2023-02-22T17:38:06.169Z,6.13
2023-02-22T17:40:37.361Z,19.42
2023-02-22T17:43:08.697Z,6.22
2023-02-22T17:45:39.403Z,5.75
2023-02-22T17:48:09.015Z,5.60
2023-02-22T17:50:38.162Z,7.10
2023-02-22T17:53:06.997Z,4.93
2023-02-22T17:55:38.972Z,5.05
2023-02-22T17:58:08.864Z,5.82
2023-02-22T18:00:38.816Z,4.65
2023-02-22T18:03:08.680Z,6.50
2023-02-22T18:05:41.650Z,5.22
2023-02-22T18:08:09.565Z,4.07
2023-02-22T18:10:38.889Z,3.60
2023-02-22T18:13:06.748Z,5.90
2023-02-22T18:15:35.544Z,9.30
2023-02-22T18:18:05.177Z,6.18
2023-02-22T18:20:38.166Z,5.55
2023-02-22T18:23:08.287Z,6.07
2023-02-22T18:25:40.033Z,7.68
2023-02-22T18:28:09.561Z,4.57
2023-02-22T18:30:41.187Z,10.07
2023-02-22T18:33:11.178Z,9.18
2023-02-22T18:35:39.571Z,7.75
2023-02-22T18:38:07.766Z,5.40
2023-02-22T18:40:35.615Z,6.07
2023-02-22T18:43:04.746Z,7.97
2023-02-22T18:45:32.548Z,8.27
2023-02-22T18:48:02.352Z,7.05
2023-02-22T18:50:30.180Z,12.80
2023-02-22T18:52:57.909Z,15.38
2023-02-22T18:55:25.666Z,8.13
2023-02-22T18:57:53.506Z,4.80
2023-02-22T19:00:28.565Z,8.25
2023-02-22T19:02:57.646Z,13.88
2023-02-22T19:05:25.495Z,11.82
2023-02-22T19:07:53.276Z,11.75
2023-02-22T19:10:22.277Z,8.30
2023-02-22T19:12:50.266Z,8.57
2023-02-22T19:15:18.168Z,10.23
2023-02-22T19:17:47.285Z,10.43
2023-02-22T19:20:15.192Z,8.15
2023-02-22T19:22:42.959Z,11.68
2023-02-22T19:25:10.733Z,10.25
2023-02-22T19:27:38.676Z,7.15
2023-02-22T19:30:08.383Z,12.43
2023-02-22T19:32:36.670Z,8.43
2023-02-22T19:35:11.607Z,8.27
2023-02-22T19:37:45.896Z,11.68
2023-02-22T19:40:16.952Z,10.70
2023-02-22T19:42:44.748Z,11.43
2023-02-22T19:45:12.644Z,12.55
2023-02-22T19:47:40.460Z,9.88
2023-02-22T19:50:10.193Z,8.50
2023-02-22T19:52:38.971Z,12.15
2023-02-22T19:55:12.531Z,11.15
2023-02-22T19:57:40.801Z,8.90
2023-02-22T20:00:11.379Z,11.80
2023-02-22T20:02:40.471Z,10.43
2023-02-22T20:05:18.661Z,12.48
2023-02-22T20:07:49.414Z,16.00
2023-02-22T20:10:21.379Z,8.27
2023-02-22T20:12:49.546Z,11.18
2023-02-22T20:15:18.079Z,9.70
2023-02-22T20:17:50.343Z,18.20
2023-02-22T20:20:21.652Z,11.73
2023-02-22T20:22:49.520Z,13.45
2023-02-22T20:25:17.582Z,13.23
2023-02-22T20:27:46.688Z,13.48
2023-02-22T20:30:18.199Z,9.82
2023-02-22T20:32:46.341Z,7.82
2023-02-22T20:35:16.596Z,15.23
2023-02-22T20:38:15.168Z,11.18
2023-02-22T20:40:52.863Z,8.23
2023-02-22T20:43:27.819Z,16.00
2023-02-22T20:46:07.125Z,12.05
2023-02-22T20:48:38.609Z,14.50
2023-02-22T20:51:07.390Z,12.73
2023-02-22T20:53:39.230Z,11.43
2023-02-22T20:56:07.853Z,9.50
2023-02-22T20:58:35.764Z,11.93
2023-02-22T21:01:07.693Z,14.80
2023-02-22T21:03:36.016Z,9.07
2023-02-22T21:06:05.961Z,8.30
2023-02-22T21:08:34.479Z,13.40
2023-02-22T21:11:03.836Z,9.30
2023-02-22T21:13:32.054Z,11.25
2023-02-22T21:16:00.273Z,11.85
2023-02-22T21:18:28.251Z,10.20
2023-02-22T21:20:56.175Z,13.25
2023-02-22T21:23:24.238Z,11.45
2023-02-22T21:25:53.087Z,10.75
2023-02-22T21:28:23.231Z,8.20
2023-02-22T21:30:53.584Z,9.40
2023-02-22T21:33:25.962Z,13.65
2023-02-22T21:35:56.352Z,12.73
2023-02-22T21:38:24.414Z,11.65
2023-02-22T21:40:55.439Z,8.68
2023-02-22T21:43:25.308Z,10.75
2023-02-22T21:45:53.311Z,9.20
2023-02-22T21:48:21.386Z,14.82
2023-02-22T21:50:49.256Z,9.55
2023-02-22T21:53:18.686Z,8.65
2023-02-22T21:55:46.914Z,10.32
2023-02-22T21:58:16.564Z,11.32
2023-02-22T22:00:46.349Z,15.77
2023-02-22T22:03:20.336Z,16.88
2023-02-22T22:05:49.066Z,19.42
2023-02-22T22:08:20.330Z,14.90
2023-02-22T22:10:55.296Z,10.60
2023-02-22T22:13:23.437Z,8.32
2023-02-22T22:15:52.844Z,7.95
2023-02-22T22:18:21.596Z,15.20
2023-02-22T22:20:51.837Z,13.73
2023-02-22T22:23:19.768Z,9.70
2023-02-22T22:25:51.082Z,13.80
2023-02-22T22:28:19.126Z,14.15
2023-02-22T22:30:49.384Z,12.55
2023-02-22T22:33:19.074Z,15.30
2023-02-22T22:35:47.015Z,14.82
2023-02-22T22:41:27.303Z,8.73
2023-02-22T22:43:55.632Z,8.85
2023-02-22T22:46:23.631Z,12.45
2023-02-22T22:48:52.956Z,9.85
2023-02-22T22:51:21.969Z,12.23
2023-02-22T22:53:51.516Z,11.68
2023-02-22T22:56:25.885Z,8.63
2023-02-22T22:58:55.475Z,9.68
2023-02-22T23:01:27.890Z,13.45
2023-02-22T23:04:01.805Z,8.65
2023-02-22T23:06:32.930Z,12.50
2023-02-22T23:09:10.189Z,7.97
2023-02-22T23:11:44.179Z,13.93
2023-02-22T23:14:13.455Z,13.27
2023-02-22T23:16:42.551Z,12.13
2023-02-22T23:19:11.855Z,14.00
2023-02-22T23:21:43.035Z,11.60
2023-02-22T23:24:15.125Z,12.52
2023-02-22T23:26:48.273Z,12.98
2023-02-22T23:29:16.865Z,10.05
2023-02-22T23:31:47.955Z,10.65
2023-02-22T23:34:18.037Z,11.73
2023-02-22T23:36:46.614Z,13.00
2023-02-22T23:39:16.818Z,9.30
2023-02-22T23:41:44.888Z,9.25
2023-02-22T23:44:17.417Z,9.07
2023-02-22T23:46:47.873Z,11.00
2023-02-22T23:49:20.330Z,6.85
2023-02-22T23:51:48.697Z,8.13
2023-02-22T23:54:19.495Z,8.60
2023-02-22T23:56:56.167Z,9.70
2023-02-22T23:59:24.953Z,6.78
